Schippersgracht — PCGR — position and weather

sailwx.info

Track history (hours):
 
Tides and Currents Weather Stations Pressure Air Temp Water Temp Dewpoint Dewpoint Depression Visibility Wind Speed Wind Dir Waves Ship Positions

Schippersgracht

Last reported at 2019-Jan-20 18:49 UTC. Time now 2019-Jan-22 06:50 UTC.
Position N 60°22' E 019°01'.

Length 168 m; beam 25 m.

Type: Cargo ship. MMSI: 245578000.

Date/timePositionNaut miles runAvg speedWind from/ knotsBaromVisibWave heightAir tempDewpointWater temp
2019-Jan-20 18:49N 60°22' E 019°01'516.4
2019-Jan-20 18:30N 60°17' E 019°02'816.6
2019-Jan-20 18:00N 60°09' E 019°08'816.6
2019-Jan-20 17:30N 60°03' E 019°19'816.5
2019-Jan-20 17:00N 59°57' E 019°30'816.2
2019-Jan-20 16:30N 59°51' E 019°40'21415.6
2019-Jan-20 02:44N 56°32' E 017°09'417.6
2019-Jan-20 02:30N 56°28' E 017°06'917.7
2019-Jan-20 02:00N 56°20' E 017°01'917.6
2019-Jan-20 01:30N 56°12' E 016°55'917.1
2019-Jan-20 01:00N 56°04' E 016°48'918.0
2019-Jan-20 00:30N 55°59' E 016°34'918.1
2019-Jan-20 00:00N 55°54' E 016°21'917.7
2019-Jan-19 23:30N 55°49' E 016°08'918.0
2019-Jan-19 23:00N 55°46' E 015°53'918.1
2019-Jan-19 22:31N 55°43' E 015°38'918.0
2019-Jan-19 22:00N 55°38' E 015°24'918.0
2019-Jan-19 21:30N 55°34' E 015°10'2518.0
2019-Jan-19 20:07N 55°19' E 014°34'218.2
2019-Jan-19 20:00N 55°18' E 014°32'918.3
2019-Jan-19 19:30N 55°11' E 014°21'917.9
2019-Jan-19 19:00N 55°04' E 014°10'5517.7
2019-Jan-19 15:55N 54°44' E 012°42'715.3
2019-Jan-19 15:30N 54°40' E 012°33'815.5
2019-Jan-19 15:00N 54°36' E 012°22'1414.5
2019-Jan-19 14:03N 54°25' E 012°10'114.8
2019-Jan-19 14:00N 54°24' E 012°08'815.2
2019-Jan-19 13:29N 54°25' E 011°55'714.7
2019-Jan-19 13:00N 54°26' E 011°43'714.8
2019-Jan-19 12:30N 54°29' E 011°31'714.8
2019-Jan-19 12:00N 54°32' E 011°20'815.1
2019-Jan-19 11:30N 54°36' E 011°09'815.1
2019-Jan-19 11:00N 54°40' E 010°58'713.2
2019-Jan-19 10:30N 54°46' E 010°52'714.3
2019-Jan-19 10:00N 54°53' E 010°53'713.9
2019-Jan-19 09:30N 54°59' E 010°60'713.6
2019-Jan-19 09:00N 55°05' E 011°02'714.5
2019-Jan-19 08:30N 55°12' E 011°06'611.7
2019-Jan-19 08:00N 55°18' E 011°03'916.8
2019-Jan-19 07:28N 55°26' E 010°57'10015.7
2019-Jan-19 01:06N 57°03' E 011°40'217.5
2019-Jan-19 01:00N 57°05' E 011°39'917.7
2019-Jan-19 00:30N 57°13' E 011°34'917.5
2019-Jan-19 00:00N 57°22' E 011°29'917.2
2019-Jan-18 23:30N 57°29' E 011°21'816.0
2019-Jan-18 23:00N 57°35' E 011°11'918.1
2019-Jan-18 22:30N 57°41' E 010°58'917.9
2019-Jan-18 22:00N 57°46' E 010°45'918.4
2019-Jan-18 21:30N 57°46' E 010°27'1018.0
2019-Jan-18 20:57N 57°46' E 010°09'817.4
2019-Jan-18 20:30N 57°46' E 009°54'917.6
2019-Jan-18 20:00N 57°43' E 009°38'917.8
2019-Jan-18 19:30N 57°41' E 009°22'917.6
2019-Jan-18 19:00N 57°36' E 009°09'917.3
2019-Jan-18 18:29N 57°30' E 008°56'1817.3
2019-Jan-18 17:28N 57°19' E 008°31'27916.0
2019-Jan-17 23:59N 53°15' E 004°34'715.0
2019-Jan-17 23:30N 53°08' E 004°28'815.1
2019-Jan-17 23:00N 53°02' E 004°22'714.7
2019-Jan-17 22:30N 52°55' E 004°17'714.2
2019-Jan-17 22:00N 52°49' E 004°10'714.0
2019-Jan-17 21:29N 52°43' E 004°04'714.0
2019-Jan-17 21:00N 52°38' E 003°56'714.3
2019-Jan-17 20:30N 52°34' E 003°47'714.0
2019-Jan-17 20:00N 52°28' E 003°40'713.9
2019-Jan-17 19:30N 52°23' E 003°33'714.0
2019-Jan-17 19:00N 52°18' E 003°25'713.6
2019-Jan-17 18:30N 52°13' E 003°17'813.2
2019-Jan-17 17:56N 52°07' E 003°09'3712.6
2019-Jan-17 15:01N 51°41' E 002°28'015.6
2019-Jan-17 15:00N 51°40' E 002°28'714.8
2019-Jan-17 14:30N 51°35' E 002°20'815.2
2019-Jan-17 14:00N 51°29' E 002°13'714.9
2019-Jan-17 13:30N 51°22' E 002°07'815.0
2019-Jan-17 13:00N 51°15' E 002°06'816.2
2019-Jan-17 12:30N 51°10' E 001°55'816.2
2019-Jan-17 12:00N 51°05' E 001°45'816.2
2019-Jan-17 11:30N 50°59' E 001°37'815.9
2019-Jan-17 11:00N 50°53' E 001°29'6415.9
2019-Jan-17 06:59N 50°19' E 000°04'918.0
2019-Jan-17 06:30N 50°18' W 000°10'7719.1
2019-Jan-17 02:30N 49°58' W 002°05'1319.1
2019-Jan-17 01:48N 49°54' W 002°25'618.7
2019-Jan-17 01:30N 49°53' W 002°33'918.6
2019-Jan-17 01:00N 49°50' W 002°47'918.5
2019-Jan-17 00:30N 49°49' W 003°01'918.6
2019-Jan-17 00:00N 49°48' W 003°15'918.4
2019-Jan-16 23:30N 49°47' W 003°30'918.5
2019-Jan-16 23:01N 49°46' W 003°44'918.4
2019-Jan-16 22:30N 49°46' W 003°58'  
Track history (hours):
 
Tides and Currents Weather Stations Pressure Air Temp Water Temp Dewpoint Dewpoint Depression Visibility Wind Speed Wind Dir Waves Ship Positions

Schippersgracht

Last reported at 2019-Jan-20 18:49 UTC. Time now 2019-Jan-22 06:50 UTC.
Position N 60°22' E 019°01'.

Length 168 m; beam 25 m.

Type: Cargo ship. MMSI: 245578000.

Date/timePositionNaut miles runAvg speedWind from/ knotsBaromVisibWave heightAir tempDewpointWater temp
2019-Jan-20 18:49N 60°22' E 019°01'516.4
2019-Jan-20 18:30N 60°17' E 019°02'816.6
2019-Jan-20 18:00N 60°09' E 019°08'816.6
2019-Jan-20 17:30N 60°03' E 019°19'816.5
2019-Jan-20 17:00N 59°57' E 019°30'816.2
2019-Jan-20 16:30N 59°51' E 019°40'21415.6
2019-Jan-20 02:44N 56°32' E 017°09'417.6
2019-Jan-20 02:30N 56°28' E 017°06'917.7
2019-Jan-20 02:00N 56°20' E 017°01'917.6
2019-Jan-20 01:30N 56°12' E 016°55'917.1
2019-Jan-20 01:00N 56°04' E 016°48'918.0
2019-Jan-20 00:30N 55°59' E 016°34'918.1
2019-Jan-20 00:00N 55°54' E 016°21'917.7
2019-Jan-19 23:30N 55°49' E 016°08'918.0
2019-Jan-19 23:00N 55°46' E 015°53'918.1
2019-Jan-19 22:31N 55°43' E 015°38'918.0
2019-Jan-19 22:00N 55°38' E 015°24'918.0
2019-Jan-19 21:30N 55°34' E 015°10'2518.0
2019-Jan-19 20:07N 55°19' E 014°34'218.2
2019-Jan-19 20:00N 55°18' E 014°32'918.3
2019-Jan-19 19:30N 55°11' E 014°21'917.9
2019-Jan-19 19:00N 55°04' E 014°10'5517.7
2019-Jan-19 15:55N 54°44' E 012°42'715.3
2019-Jan-19 15:30N 54°40' E 012°33'815.5
2019-Jan-19 15:00N 54°36' E 012°22'1414.5
2019-Jan-19 14:03N 54°25' E 012°10'114.8
2019-Jan-19 14:00N 54°24' E 012°08'815.2
2019-Jan-19 13:29N 54°25' E 011°55'714.7
2019-Jan-19 13:00N 54°26' E 011°43'714.8
2019-Jan-19 12:30N 54°29' E 011°31'714.8
2019-Jan-19 12:00N 54°32' E 011°20'815.1
2019-Jan-19 11:30N 54°36' E 011°09'815.1
2019-Jan-19 11:00N 54°40' E 010°58'713.2
2019-Jan-19 10:30N 54°46' E 010°52'714.3
2019-Jan-19 10:00N 54°53' E 010°53'713.9
2019-Jan-19 09:30N 54°59' E 010°60'713.6
2019-Jan-19 09:00N 55°05' E 011°02'714.5
2019-Jan-19 08:30N 55°12' E 011°06'611.7
2019-Jan-19 08:00N 55°18' E 011°03'916.8
2019-Jan-19 07:28N 55°26' E 010°57'10015.7
2019-Jan-19 01:06N 57°03' E 011°40'217.5
2019-Jan-19 01:00N 57°05' E 011°39'917.7
2019-Jan-19 00:30N 57°13' E 011°34'917.5
2019-Jan-19 00:00N 57°22' E 011°29'917.2
2019-Jan-18 23:30N 57°29' E 011°21'816.0
2019-Jan-18 23:00N 57°35' E 011°11'918.1
2019-Jan-18 22:30N 57°41' E 010°58'917.9
2019-Jan-18 22:00N 57°46' E 010°45'918.4
2019-Jan-18 21:30N 57°46' E 010°27'1018.0
2019-Jan-18 20:57N 57°46' E 010°09'817.4
2019-Jan-18 20:30N 57°46' E 009°54'917.6
2019-Jan-18 20:00N 57°43' E 009°38'917.8
2019-Jan-18 19:30N 57°41' E 009°22'917.6
2019-Jan-18 19:00N 57°36' E 009°09'917.3
2019-Jan-18 18:29N 57°30' E 008°56'1817.3
2019-Jan-18 17:28N 57°19' E 008°31'27916.0
2019-Jan-17 23:59N 53°15' E 004°34'715.0
2019-Jan-17 23:30N 53°08' E 004°28'815.1
2019-Jan-17 23:00N 53°02' E 004°22'714.7
2019-Jan-17 22:30N 52°55' E 004°17'714.2
2019-Jan-17 22:00N 52°49' E 004°10'714.0
2019-Jan-17 21:29N 52°43' E 004°04'714.0
2019-Jan-17 21:00N 52°38' E 003°56'714.3
2019-Jan-17 20:30N 52°34' E 003°47'714.0
2019-Jan-17 20:00N 52°28' E 003°40'713.9
2019-Jan-17 19:30N 52°23' E 003°33'714.0
2019-Jan-17 19:00N 52°18' E 003°25'713.6
2019-Jan-17 18:30N 52°13' E 003°17'813.2
2019-Jan-17 17:56N 52°07' E 003°09'3712.6
2019-Jan-17 15:01N 51°41' E 002°28'015.6
2019-Jan-17 15:00N 51°40' E 002°28'714.8
2019-Jan-17 14:30N 51°35' E 002°20'815.2
2019-Jan-17 14:00N 51°29' E 002°13'714.9
2019-Jan-17 13:30N 51°22' E 002°07'815.0
2019-Jan-17 13:00N 51°15' E 002°06'816.2
2019-Jan-17 12:30N 51°10' E 001°55'816.2
2019-Jan-17 12:00N 51°05' E 001°45'816.2
2019-Jan-17 11:30N 50°59' E 001°37'815.9
2019-Jan-17 11:00N 50°53' E 001°29'6415.9
2019-Jan-17 06:59N 50°19' E 000°04'918.0
2019-Jan-17 06:30N 50°18' W 000°10'7719.1
2019-Jan-17 02:30N 49°58' W 002°05'1319.1
2019-Jan-17 01:48N 49°54' W 002°25'618.7
2019-Jan-17 01:30N 49°53' W 002°33'918.6
2019-Jan-17 01:00N 49°50' W 002°47'918.5
2019-Jan-17 00:30N 49°49' W 003°01'918.6
2019-Jan-17 00:00N 49°48' W 003°15'918.4
2019-Jan-16 23:30N 49°47' W 003°30'918.5
2019-Jan-16 23:01N 49°46' W 003°44'918.4
2019-Jan-16 22:30N 49°46' W 003°58'  

Dump ship's entire track history